sensor_id;sensor_type;location;lat;lon;timestamp;temperature;humidity
67249;SHT31;63247;54.300;18.592;2023-07-29T00:01:36;13.65;99.99
67249;SHT31;63247;54.300;18.592;2023-07-29T00:04:02;13.61;99.99
67249;SHT31;63247;54.300;18.592;2023-07-29T00:06:27;13.60;99.99
67249;SHT31;63247;54.300;18.592;2023-07-29T00:08:53;13.58;99.99
67249;SHT31;63247;54.300;18.592;2023-07-29T00:11:18;13.61;99.99
67249;SHT31;63247;54.300;18.592;2023-07-29T00:13:44;13.71;99.99
67249;SHT31;63247;54.300;18.592;2023-07-29T00:16:09;13.69;99.99
67249;SHT31;63247;54.300;18.592;2023-07-29T00:18:35;13.78;99.99
67249;SHT31;63247;54.300;18.592;2023-07-29T00:21:00;13.71;99.99
67249;SHT31;63247;54.300;18.592;2023-07-29T00:23:25;13.68;99.99
67249;SHT31;63247;54.300;18.592;2023-07-29T00:25:51;13.68;99.99
67249;SHT31;63247;54.300;18.592;2023-07-29T00:28:16;13.62;99.99
67249;SHT31;63247;54.300;18.592;2023-07-29T00:30:42;13.61;99.99
67249;SHT31;63247;54.300;18.592;2023-07-29T00:33:07;13.53;99.99
67249;SHT31;63247;54.300;18.592;2023-07-29T00:35:33;13.50;99.99
67249;SHT31;63247;54.300;18.592;2023-07-29T00:37:59;13.44;99.99
67249;SHT31;63247;54.300;18.592;2023-07-29T00:40:27;13.36;99.99
67249;SHT31;63247;54.300;18.592;2023-07-29T00:42:53;13.34;99.99
67249;SHT31;63247;54.300;18.592;2023-07-29T00:45:19;13.36;99.99
67249;SHT31;63247;54.300;18.592;2023-07-29T00:47:44;13.27;99.99
67249;SHT31;63247;54.300;18.592;2023-07-29T00:50:11;13.30;99.99
67249;SHT31;63247;54.300;18.592;2023-07-29T00:52:37;13.30;99.99
67249;SHT31;63247;54.300;18.592;2023-07-29T00:55:04;13.30;99.99
67249;SHT31;63247;54.300;18.592;2023-07-29T00:57:30;13.31;99.99
67249;SHT31;63247;54.300;18.592;2023-07-29T00:59:56;13.33;99.99
67249;SHT31;63247;54.300;18.592;2023-07-29T01:02:21;13.34;99.99
67249;SHT31;63247;54.300;18.592;2023-07-29T01:04:54;13.40;99.99
67249;SHT31;63247;54.300;18.592;2023-07-29T01:07:25;13.36;99.99
67249;SHT31;63247;54.300;18.592;2023-07-29T01:10:07;13.21;99.99
67249;SHT31;63247;54.300;18.592;2023-07-29T01:16:17;12.86;99.99
67249;SHT31;63247;54.300;18.592;2023-07-29T01:18:31;12.78;99.99
67249;SHT31;63247;54.300;18.592;2023-07-29T01:21:04;12.75;99.99
67249;SHT31;63247;54.300;18.592;2023-07-29T01:23:33;12.81;99.99
67249;SHT31;63247;54.300;18.592;2023-07-29T01:25:59;12.69;99.99
67249;SHT31;63247;54.300;18.592;2023-07-29T01:28:25;12.64;99.99
67249;SHT31;63247;54.300;18.592;2023-07-29T01:30:53;12.68;99.99
67249;SHT31;63247;54.300;18.592;2023-07-29T01:33:33;12.64;99.99
67249;SHT31;63247;54.300;18.592;2023-07-29T01:36:09;12.65;99.99
67249;SHT31;63247;54.300;18.592;2023-07-29T01:38:38;12.61;99.99
67249;SHT31;63247;54.300;18.592;2023-07-29T01:41:08;12.62;99.99
67249;SHT31;63247;54.300;18.592;2023-07-29T01:43:34;12.61;99.99
67249;SHT31;63247;54.300;18.592;2023-07-29T01:46:02;12.68;99.99
67249;SHT31;63247;54.300;18.592;2023-07-29T01:48:28;12.65;99.99
67249;SHT31;63247;54.300;18.592;2023-07-29T01:50:55;12.66;99.99
67249;SHT31;63247;54.300;18.592;2023-07-29T01:53:21;12.58;99.99
67249;SHT31;63247;54.300;18.592;2023-07-29T01:55:46;12.54;99.99
67249;SHT31;63247;54.300;18.592;2023-07-29T01:58:12;12.56;99.99
67249;SHT31;63247;54.300;18.592;2023-07-29T02:00:38;12.55;99.99
67249;SHT31;63247;54.300;18.592;2023-07-29T02:03:03;12.56;99.99
67249;SHT31;63247;54.300;18.592;2023-07-29T02:05:28;12.54;99.99
67249;SHT31;63247;54.300;18.592;2023-07-29T02:07:54;12.48;99.99
67249;SHT31;63247;54.300;18.592;2023-07-29T02:10:20;12.40;99.99
67249;SHT31;63247;54.300;18.592;2023-07-29T02:12:45;12.35;99.99
67249;SHT31;63247;54.300;18.592;2023-07-29T02:15:11;12.37;99.99
67249;SHT31;63247;54.300;18.592;2023-07-29T02:17:36;12.44;99.99
67249;SHT31;63247;54.300;18.592;2023-07-29T02:20:03;12.27;99.99
67249;SHT31;63247;54.300;18.592;2023-07-29T02:22:29;12.20;99.99
67249;SHT31;63247;54.300;18.592;2023-07-29T02:24:54;12.30;99.99
67249;SHT31;63247;54.300;18.592;2023-07-29T02:27:20;12.28;99.99
67249;SHT31;63247;54.300;18.592;2023-07-29T02:29:45;12.23;99.99
67249;SHT31;63247;54.300;18.592;2023-07-29T02:32:11;12.17;99.99
67249;SHT31;63247;54.300;18.592;2023-07-29T02:34:36;12.16;99.99
67249;SHT31;63247;54.300;18.592;2023-07-29T02:37:01;12.17;99.99
67249;SHT31;63247;54.300;18.592;2023-07-29T02:39:27;12.13;99.99
67249;SHT31;63247;54.300;18.592;2023-07-29T02:41:52;12.17;99.99
67249;SHT31;63247;54.300;18.592;2023-07-29T02:44:18;12.20;99.99
67249;SHT31;63247;54.300;18.592;2023-07-29T02:46:44;12.08;99.99
67249;SHT31;63247;54.300;18.592;2023-07-29T02:49:10;12.10;99.99
67249;SHT31;63247;54.300;18.592;2023-07-29T02:51:35;12.00;99.99
67249;SHT31;63247;54.300;18.592;2023-07-29T02:54:00;11.96;99.99
67249;SHT31;63247;54.300;18.592;2023-07-29T02:56:26;11.96;99.99
67249;SHT31;63247;54.300;18.592;2023-07-29T02:58:51;11.91;99.99
67249;SHT31;63247;54.300;18.592;2023-07-29T03:01:17;11.90;99.99
67249;SHT31;63247;54.300;18.592;2023-07-29T03:03:43;11.94;99.99
67249;SHT31;63247;54.300;18.592;2023-07-29T03:06:13;11.90;99.99
67249;SHT31;63247;54.300;18.592;2023-07-29T03:08:39;11.94;99.99
67249;SHT31;63247;54.300;18.592;2023-07-29T03:11:09;11.94;99.99
67249;SHT31;63247;54.300;18.592;2023-07-29T03:13:35;12.00;99.99
67249;SHT31;63247;54.300;18.592;2023-07-29T03:16:11;12.00;99.99
67249;SHT31;63247;54.300;18.592;2023-07-29T03:18:38;12.08;99.99
67249;SHT31;63247;54.300;18.592;2023-07-29T03:21:04;12.25;99.99
67249;SHT31;63247;54.300;18.592;2023-07-29T03:23:32;12.38;99.99
67249;SHT31;63247;54.300;18.592;2023-07-29T03:25:59;12.44;99.99
67249;SHT31;63247;54.300;18.592;2023-07-29T03:28:26;12.59;99.99
67249;SHT31;63247;54.300;18.592;2023-07-29T03:30:53;12.72;99.99
67249;SHT31;63247;54.300;18.592;2023-07-29T03:33:18;12.83;99.99
67249;SHT31;63247;54.300;18.592;2023-07-29T03:35:44;12.92;99.99
67249;SHT31;63247;54.300;18.592;2023-07-29T03:38:10;13.03;99.99
67249;SHT31;63247;54.300;18.592;2023-07-29T03:40:39;13.17;99.99
67249;SHT31;63247;54.300;18.592;2023-07-29T03:43:05;13.31;99.99
67249;SHT31;63247;54.300;18.592;2023-07-29T03:45:31;13.67;99.99
67249;SHT31;63247;54.300;18.592;2023-07-29T03:47:56;13.75;99.99
67249;SHT31;63247;54.300;18.592;2023-07-29T03:50:21;14.05;99.99
67249;SHT31;63247;54.300;18.592;2023-07-29T03:52:47;14.26;99.99
67249;SHT31;63247;54.300;18.592;2023-07-29T03:55:12;14.50;99.99
67249;SHT31;63247;54.300;18.592;2023-07-29T03:57:38;14.65;99.99
67249;SHT31;63247;54.300;18.592;2023-07-29T04:00:04;14.68;99.99
67249;SHT31;63247;54.300;18.592;2023-07-29T04:02:30;14.71;99.99
67249;SHT31;63247;54.300;18.592;2023-07-29T04:04:55;14.96;99.99
67249;SHT31;63247;54.300;18.592;2023-07-29T04:07:20;15.09;99.99
67249;SHT31;63247;54.300;18.592;2023-07-29T04:09:46;15.33;99.99
67249;SHT31;63247;54.300;18.592;2023-07-29T04:12:11;15.64;99.99
67249;SHT31;63247;54.300;18.592;2023-07-29T04:14:37;15.74;99.99
67249;SHT31;63247;54.300;18.592;2023-07-29T04:17:02;16.19;99.99
67249;SHT31;63247;54.300;18.592;2023-07-29T04:19:28;16.17;99.99
67249;SHT31;63247;54.300;18.592;2023-07-29T04:21:53;16.42;99.87
67249;SHT31;63247;54.300;18.592;2023-07-29T04:24:18;16.73;99.71
67249;SHT31;63247;54.300;18.592;2023-07-29T04:26:45;16.87;99.32
67249;SHT31;63247;54.300;18.592;2023-07-29T04:29:11;17.06;98.02
67249;SHT31;63247;54.300;18.592;2023-07-29T04:31:37;17.18;97.49
67249;SHT31;63247;54.300;18.592;2023-07-29T04:34:02;17.65;95.92
67249;SHT31;63247;54.300;18.592;2023-07-29T04:36:29;18.18;94.61
67249;SHT31;63247;54.300;18.592;2023-07-29T04:38:54;18.16;94.14
67249;SHT31;63247;54.300;18.592;2023-07-29T04:41:20;18.24;93.68
67249;SHT31;63247;54.300;18.592;2023-07-29T04:43:45;18.78;93.55
67249;SHT31;63247;54.300;18.592;2023-07-29T04:46:10;19.27;91.22
67249;SHT31;63247;54.300;18.592;2023-07-29T04:48:36;19.75;89.63
67249;SHT31;63247;54.300;18.592;2023-07-29T04:51:01;19.79;89.62
67249;SHT31;63247;54.300;18.592;2023-07-29T04:53:27;19.94;89.22
67249;SHT31;63247;54.300;18.592;2023-07-29T04:55:52;20.54;86.96
67249;SHT31;63247;54.300;18.592;2023-07-29T04:58:17;20.67;87.09
67249;SHT31;63247;54.300;18.592;2023-07-29T05:00:43;20.79;86.11
67249;SHT31;63247;54.300;18.592;2023-07-29T05:03:08;20.85;85.96
67249;SHT31;63247;54.300;18.592;2023-07-29T05:05:34;21.45;84.30
67249;SHT31;63247;54.300;18.592;2023-07-29T05:07:59;21.41;84.55
67249;SHT31;63247;54.300;18.592;2023-07-29T05:10:24;22.00;83.05
67249;SHT31;63247;54.300;18.592;2023-07-29T05:12:50;21.60;83.31
67249;SHT31;63247;54.300;18.592;2023-07-29T05:15:15;21.24;84.79
67249;SHT31;63247;54.300;18.592;2023-07-29T05:17:41;21.04;84.75
67249;SHT31;63247;54.300;18.592;2023-07-29T05:20:06;21.31;84.30
67249;SHT31;63247;54.300;18.592;2023-07-29T05:22:32;21.76;83.37
67249;SHT31;63247;54.300;18.592;2023-07-29T05:24:57;22.27;81.80
67249;SHT31;63247;54.300;18.592;2023-07-29T05:27:23;22.45;81.36
67249;SHT31;63247;54.300;18.592;2023-07-29T05:29:48;22.14;81.10
67249;SHT31;63247;54.300;18.592;2023-07-29T05:32:14;22.52;80.72
67249;SHT31;63247;54.300;18.592;2023-07-29T05:34:39;22.54;80.99
67249;SHT31;63247;54.300;18.592;2023-07-29T05:37:04;22.92;79.26
67249;SHT31;63247;54.300;18.592;2023-07-29T05:39:30;22.51;80.19
67249;SHT31;63247;54.300;18.592;2023-07-29T05:41:57;22.91;79.72
67249;SHT31;63247;54.300;18.592;2023-07-29T05:44:22;23.07;77.93
67249;SHT31;63247;54.300;18.592;2023-07-29T05:46:48;23.30;78.60
67249;SHT31;63247;54.300;18.592;2023-07-29T05:49:13;24.52;75.98
67249;SHT31;63247;54.300;18.592;2023-07-29T05:51:39;23.71;77.15
67249;SHT31;63247;54.300;18.592;2023-07-29T05:54:04;23.30;78.08
67249;SHT31;63247;54.300;18.592;2023-07-29T05:56:29;23.99;77.21
67249;SHT31;63247;54.300;18.592;2023-07-29T05:58:56;23.71;77.91
67249;SHT31;63247;54.300;18.592;2023-07-29T06:01:22;24.27;75.97
67249;SHT31;63247;54.300;18.592;2023-07-29T06:03:48;24.90;74.95
67249;SHT31;63247;54.300;18.592;2023-07-29T06:06:13;25.58;71.67
67249;SHT31;63247;54.300;18.592;2023-07-29T06:08:38;26.51;70.89
67249;SHT31;63247;54.300;18.592;2023-07-29T06:11:04;26.16;71.00
67249;SHT31;63247;54.300;18.592;2023-07-29T06:13:32;26.41;70.91
67249;SHT31;63247;54.300;18.592;2023-07-29T06:15:57;26.55;71.43
67249;SHT31;63247;54.300;18.592;2023-07-29T06:18:23;26.99;69.43
67249;SHT31;63247;54.300;18.592;2023-07-29T06:20:49;27.75;66.99
67249;SHT31;63247;54.300;18.592;2023-07-29T06:23:14;27.38;68.82
67249;SHT31;63247;54.300;18.592;2023-07-29T06:25:40;28.21;66.22
67249;SHT31;63247;54.300;18.592;2023-07-29T06:28:05;28.94;63.98
67249;SHT31;63247;54.300;18.592;2023-07-29T06:30:30;27.24;68.26
67249;SHT31;63247;54.300;18.592;2023-07-29T06:32:56;27.44;66.88
67249;SHT31;63247;54.300;18.592;2023-07-29T06:35:21;28.91;64.07
67249;SHT31;63247;54.300;18.592;2023-07-29T06:37:47;28.91;63.55
67249;SHT31;63247;54.300;18.592;2023-07-29T06:40:12;27.86;63.65
67249;SHT31;63247;54.300;18.592;2023-07-29T06:42:38;27.99;64.53
67249;SHT31;63247;54.300;18.592;2023-07-29T06:45:05;28.26;63.33
67249;SHT31;63247;54.300;18.592;2023-07-29T06:47:30;28.06;64.51
67249;SHT31;63247;54.300;18.592;2023-07-29T06:49:56;27.85;64.83
67249;SHT31;63247;54.300;18.592;2023-07-29T06:52:21;28.47;62.59
67249;SHT31;63247;54.300;18.592;2023-07-29T06:54:46;29.05;63.81
67249;SHT31;63247;54.300;18.592;2023-07-29T06:57:12;29.25;61.12
67249;SHT31;63247;54.300;18.592;2023-07-29T06:59:37;28.44;62.47
67249;SHT31;63247;54.300;18.592;2023-07-29T07:02:03;29.01;59.61
67249;SHT31;63247;54.300;18.592;2023-07-29T07:04:28;29.06;59.99
67249;SHT31;63247;54.300;18.592;2023-07-29T07:06:54;28.70;61.61
67249;SHT31;63247;54.300;18.592;2023-07-29T07:09:20;29.20;60.89
67249;SHT31;63247;54.300;18.592;2023-07-29T07:11:45;29.63;61.11
67249;SHT31;63247;54.300;18.592;2023-07-29T07:14:12;28.43;63.90
67249;SHT31;63247;54.300;18.592;2023-07-29T07:16:37;29.50;60.18
67249;SHT31;63247;54.300;18.592;2023-07-29T07:19:04;29.50;59.86
67249;SHT31;63247;54.300;18.592;2023-07-29T07:21:30;29.73;61.19
67249;SHT31;63247;54.300;18.592;2023-07-29T07:23:55;29.74;60.74
67249;SHT31;63247;54.300;18.592;2023-07-29T07:26:20;29.97;59.12
67249;SHT31;63247;54.300;18.592;2023-07-29T07:28:46;29.83;59.02
67249;SHT31;63247;54.300;18.592;2023-07-29T07:31:11;29.53;61.16
67249;SHT31;63247;54.300;18.592;2023-07-29T07:33:37;28.53;62.87
67249;SHT31;63247;54.300;18.592;2023-07-29T07:36:02;28.16;62.01
67249;SHT31;63247;54.300;18.592;2023-07-29T07:38:28;28.79;58.46
67249;SHT31;63247;54.300;18.592;2023-07-29T07:40:56;29.47;58.30
67249;SHT31;63247;54.300;18.592;2023-07-29T07:43:23;29.29;58.77
67249;SHT31;63247;54.300;18.592;2023-07-29T07:45:48;28.91;58.61
67249;SHT31;63247;54.300;18.592;2023-07-29T07:48:14;29.54;60.22
67249;SHT31;63247;54.300;18.592;2023-07-29T07:50:41;29.70;58.31
67249;SHT31;63247;54.300;18.592;2023-07-29T07:53:07;31.45;56.11
67249;SHT31;63247;54.300;18.592;2023-07-29T07:55:32;30.91;55.91
67249;SHT31;63247;54.300;18.592;2023-07-29T07:57:58;30.07;53.96
67249;SHT31;63247;54.300;18.592;2023-07-29T08:00:23;30.51;53.99
67249;SHT31;63247;54.300;18.592;2023-07-29T08:02:49;30.60;55.61
67249;SHT31;63247;54.300;18.592;2023-07-29T08:05:14;31.41;53.77
67249;SHT31;63247;54.300;18.592;2023-07-29T08:07:40;31.42;53.10
67249;SHT31;63247;54.300;18.592;2023-07-29T08:10:06;31.07;52.53
67249;SHT31;63247;54.300;18.592;2023-07-29T08:12:32;30.93;53.76
67249;SHT31;63247;54.300;18.592;2023-07-29T08:14:57;30.49;54.30
67249;SHT31;63247;54.300;18.592;2023-07-29T08:17:23;29.70;54.72
67249;SHT31;63247;54.300;18.592;2023-07-29T08:19:48;30.68;54.01
67249;SHT31;63247;54.300;18.592;2023-07-29T08:22:14;31.10;53.48
67249;SHT31;63247;54.300;18.592;2023-07-29T08:24:42;31.41;53.76
67249;SHT31;63247;54.300;18.592;2023-07-29T08:27:07;30.29;54.73
67249;SHT31;63247;54.300;18.592;2023-07-29T08:29:33;31.07;55.27
67249;SHT31;63247;54.300;18.592;2023-07-29T08:31:58;30.04;54.85
67249;SHT31;63247;54.300;18.592;2023-07-29T08:34:24;30.42;54.22
67249;SHT31;63247;54.300;18.592;2023-07-29T08:36:49;30.89;55.43
67249;SHT31;63247;54.300;18.592;2023-07-29T08:39:14;30.90;53.61
67249;SHT31;63247;54.300;18.592;2023-07-29T08:42:01;29.06;55.94
67249;SHT31;63247;54.300;18.592;2023-07-29T08:44:35;30.02;55.66
67249;SHT31;63247;54.300;18.592;2023-07-29T08:47:00;30.78;54.15
67249;SHT31;63247;54.300;18.592;2023-07-29T08:49:30;29.67;53.59
67249;SHT31;63247;54.300;18.592;2023-07-29T08:51:57;29.37;53.51
67249;SHT31;63247;54.300;18.592;2023-07-29T08:54:23;29.84;54.10
67249;SHT31;63247;54.300;18.592;2023-07-29T08:56:49;29.84;53.88
67249;SHT31;63247;54.300;18.592;2023-07-29T08:59:15;28.12;55.80
67249;SHT31;63247;54.300;18.592;2023-07-29T09:01:42;29.30;55.59
67249;SHT31;63247;54.300;18.592;2023-07-29T09:04:09;29.52;54.38
67249;SHT31;63247;54.300;18.592;2023-07-29T09:06:35;28.87;54.81
67249;SHT31;63247;54.300;18.592;2023-07-29T09:09:01;29.42;54.61
67249;SHT31;63247;54.300;18.592;2023-07-29T09:11:28;29.08;52.56
67249;SHT31;63247;54.300;18.592;2023-07-29T09:13:53;28.79;54.51
67249;SHT31;63247;54.300;18.592;2023-07-29T09:16:22;29.19;53.74
67249;SHT31;63247;54.300;18.592;2023-07-29T09:18:48;29.57;54.64
67249;SHT31;63247;54.300;18.592;2023-07-29T09:21:22;30.01;52.96
67249;SHT31;63247;54.300;18.592;2023-07-29T09:23:50;29.83;53.24
67249;SHT31;63247;54.300;18.592;2023-07-29T09:26:21;30.53;52.79
67249;SHT31;63247;54.300;18.592;2023-07-29T09:28:52;29.33;52.98
67249;SHT31;63247;54.300;18.592;2023-07-29T09:31:23;28.81;55.11
67249;SHT31;63247;54.300;18.592;2023-07-29T09:33:49;27.73;54.54
67249;SHT31;63247;54.300;18.592;2023-07-29T09:36:14;28.33;54.32
67249;SHT31;63247;54.300;18.592;2023-07-29T09:38:40;29.39;54.02
67249;SHT31;63247;54.300;18.592;2023-07-29T09:41:06;29.76;53.64
67249;SHT31;63247;54.300;18.592;2023-07-29T09:43:33;28.56;52.70
67249;SHT31;63247;54.300;18.592;2023-07-29T09:46:02;29.01;52.40
67249;SHT31;63247;54.300;18.592;2023-07-29T09:48:28;30.29;53.69
67249;SHT31;63247;54.300;18.592;2023-07-29T09:50:57;29.81;51.90
67249;SHT31;63247;54.300;18.592;2023-07-29T09:53:22;28.68;54.53
67249;SHT31;63247;54.300;18.592;2023-07-29T09:55:49;29.64;54.75
67249;SHT31;63247;54.300;18.592;2023-07-29T09:58:19;29.60;53.78
67249;SHT31;63247;54.300;18.592;2023-07-29T10:00:45;29.60;53.35
67249;SHT31;63247;54.300;18.592;2023-07-29T10:03:11;29.19;55.47
67249;SHT31;63247;54.300;18.592;2023-07-29T10:05:39;28.79;54.00
67249;SHT31;63247;54.300;18.592;2023-07-29T10:08:05;28.60;55.11
67249;SHT31;63247;54.300;18.592;2023-07-29T10:10:31;28.49;54.16
67249;SHT31;63247;54.300;18.592;2023-07-29T10:12:56;27.33;53.60
67249;SHT31;63247;54.300;18.592;2023-07-29T10:15:22;27.41;55.46
67249;SHT31;63247;54.300;18.592;2023-07-29T10:17:49;27.52;57.42
67249;SHT31;63247;54.300;18.592;2023-07-29T10:20:16;26.41;54.41
67249;SHT31;63247;54.300;18.592;2023-07-29T10:22:43;27.16;55.57
67249;SHT31;63247;54.300;18.592;2023-07-29T10:25:10;27.30;55.86
67249;SHT31;63247;54.300;18.592;2023-07-29T10:30:13;27.95;56.14
67249;SHT31;63247;54.300;18.592;2023-07-29T10:32:42;27.35;56.05
67249;SHT31;63247;54.300;18.592;2023-07-29T10:35:10;27.22;55.95
67249;SHT31;63247;54.300;18.592;2023-07-29T10:37:36;27.50;53.25
67249;SHT31;63247;54.300;18.592;2023-07-29T10:40:06;27.06;54.82
67249;SHT31;63247;54.300;18.592;2023-07-29T10:42:32;26.20;55.12
67249;SHT31;63247;54.300;18.592;2023-07-29T10:44:57;26.08;55.27
67249;SHT31;63247;54.300;18.592;2023-07-29T10:47:28;25.76;55.59
67249;SHT31;63247;54.300;18.592;2023-07-29T10:49:56;25.81;55.67
67249;SHT31;63247;54.300;18.592;2023-07-29T10:52:40;25.86;56.39
67249;SHT31;63247;54.300;18.592;2023-07-29T10:55:36;26.27;56.27
67249;SHT31;63247;54.300;18.592;2023-07-29T10:58:10;26.00;55.14
67249;SHT31;63247;54.300;18.592;2023-07-29T11:00:36;26.32;57.35
67249;SHT31;63247;54.300;18.592;2023-07-29T11:03:03;25.86;57.16
67249;SHT31;63247;54.300;18.592;2023-07-29T11:05:52;25.96;58.69
67249;SHT31;63247;54.300;18.592;2023-07-29T11:08:29;26.55;59.50
67249;SHT31;63247;54.300;18.592;2023-07-29T11:11:11;26.72;59.46
67249;SHT31;63247;54.300;18.592;2023-07-29T11:13:37;26.25;57.77
67249;SHT31;63247;54.300;18.592;2023-07-29T11:16:04;26.02;57.56
67249;SHT31;63247;54.300;18.592;2023-07-29T11:18:34;26.86;58.46
67249;SHT31;63247;54.300;18.592;2023-07-29T11:21:01;26.90;57.63
67249;SHT31;63247;54.300;18.592;2023-07-29T11:23:31;26.58;57.00
67249;SHT31;63247;54.300;18.592;2023-07-29T11:25:58;26.27;57.64
67249;SHT31;63247;54.300;18.592;2023-07-29T11:28:24;26.25;58.13
67249;SHT31;63247;54.300;18.592;2023-07-29T11:30:54;26.13;56.15
67249;SHT31;63247;54.300;18.592;2023-07-29T11:33:22;26.71;59.49
67249;SHT31;63247;54.300;18.592;2023-07-29T11:35:49;26.76;57.32
67249;SHT31;63247;54.300;18.592;2023-07-29T11:38:19;26.44;58.80
67249;SHT31;63247;54.300;18.592;2023-07-29T11:41:00;25.84;57.65
67249;SHT31;63247;54.300;18.592;2023-07-29T11:43:27;26.04;58.85
67249;SHT31;63247;54.300;18.592;2023-07-29T11:45:53;26.16;58.25
67249;SHT31;63247;54.300;18.592;2023-07-29T11:48:34;26.65;58.25
67249;SHT31;63247;54.300;18.592;2023-07-29T11:51:01;26.55;56.95
67249;SHT31;63247;54.300;18.592;2023-07-29T11:53:30;26.86;58.43
67249;SHT31;63247;54.300;18.592;2023-07-29T11:55:56;26.86;57.55
67249;SHT31;63247;54.300;18.592;2023-07-29T11:58:22;26.48;58.58
67249;SHT31;63247;54.300;18.592;2023-07-29T12:00:48;27.38;58.69
67249;SHT31;63247;54.300;18.592;2023-07-29T12:03:14;27.66;57.12
67249;SHT31;63247;54.300;18.592;2023-07-29T12:05:41;27.71;58.58
67249;SHT31;63247;54.300;18.592;2023-07-29T12:08:07;27.31;57.89
67249;SHT31;63247;54.300;18.592;2023-07-29T12:10:33;26.99;58.85
67249;SHT31;63247;54.300;18.592;2023-07-29T12:12:59;26.96;59.79
67249;SHT31;63247;54.300;18.592;2023-07-29T12:15:28;27.17;59.74
67249;SHT31;63247;54.300;18.592;2023-07-29T12:17:55;26.58;57.98
67249;SHT31;63247;54.300;18.592;2023-07-29T12:20:21;26.82;57.77
67249;SHT31;63247;54.300;18.592;2023-07-29T12:22:52;27.06;58.13
67249;SHT31;63247;54.300;18.592;2023-07-29T12:25:18;27.34;57.86
67249;SHT31;63247;54.300;18.592;2023-07-29T12:27:43;27.57;59.17
67249;SHT31;63247;54.300;18.592;2023-07-29T12:30:09;27.45;57.37
67249;SHT31;63247;54.300;18.592;2023-07-29T12:32:45;27.62;58.47
67249;SHT31;63247;54.300;18.592;2023-07-29T12:35:11;27.80;58.19
67249;SHT31;63247;54.300;18.592;2023-07-29T12:37:36;26.96;58.45
67249;SHT31;63247;54.300;18.592;2023-07-29T12:40:04;26.60;58.63
67249;SHT31;63247;54.300;18.592;2023-07-29T12:42:29;26.13;60.44
67249;SHT31;63247;54.300;18.592;2023-07-29T12:44:55;25.63;59.49
67249;SHT31;63247;54.300;18.592;2023-07-29T12:47:20;25.65;61.16
67249;SHT31;63247;54.300;18.592;2023-07-29T12:49:46;25.41;61.52
67249;SHT31;63247;54.300;18.592;2023-07-29T12:52:11;25.28;63.09
67249;SHT31;63247;54.300;18.592;2023-07-29T12:54:36;25.29;64.83
67249;SHT31;63247;54.300;18.592;2023-07-29T12:57:02;25.39;64.06
67249;SHT31;63247;54.300;18.592;2023-07-29T12:59:27;25.21;64.82
67249;SHT31;63247;54.300;18.592;2023-07-29T13:01:53;25.14;65.31
67249;SHT31;63247;54.300;18.592;2023-07-29T13:04:18;25.11;66.17
67249;SHT31;63247;54.300;18.592;2023-07-29T13:06:44;25.26;65.82
67249;SHT31;63247;54.300;18.592;2023-07-29T13:09:09;25.33;65.62
67249;SHT31;63247;54.300;18.592;2023-07-29T13:11:35;25.59;65.17
67249;SHT31;63247;54.300;18.592;2023-07-29T13:14:01;25.41;65.63
67249;SHT31;63247;54.300;18.592;2023-07-29T13:16:27;25.81;65.66
67249;SHT31;63247;54.300;18.592;2023-07-29T13:18:53;26.14;65.21
67249;SHT31;63247;54.300;18.592;2023-07-29T13:21:18;25.93;65.52
67249;SHT31;63247;54.300;18.592;2023-07-29T13:23:44;25.76;66.28
67249;SHT31;63247;54.300;18.592;2023-07-29T13:26:09;25.56;66.83
67249;SHT31;63247;54.300;18.592;2023-07-29T13:28:36;25.33;66.45
67249;SHT31;63247;54.300;18.592;2023-07-29T13:31:01;25.52;68.17
67249;SHT31;63247;54.300;18.592;2023-07-29T13:33:28;25.98;67.54
67249;SHT31;63247;54.300;18.592;2023-07-29T13:35:53;26.16;66.46
67249;SHT31;63247;54.300;18.592;2023-07-29T13:38:19;26.17;67.91
67249;SHT31;63247;54.300;18.592;2023-07-29T13:40:45;25.74;66.87
67249;SHT31;63247;54.300;18.592;2023-07-29T13:43:10;25.49;66.33
67249;SHT31;63247;54.300;18.592;2023-07-29T13:45:36;25.93;68.19
67249;SHT31;63247;54.300;18.592;2023-07-29T13:48:01;26.22;67.14
67249;SHT31;63247;54.300;18.592;2023-07-29T13:50:27;26.28;65.68
67249;SHT31;63247;54.300;18.592;2023-07-29T13:52:52;26.22;66.37
67249;SHT31;63247;54.300;18.592;2023-07-29T13:55:18;25.97;66.82
67249;SHT31;63247;54.300;18.592;2023-07-29T13:57:43;25.98;67.20
67249;SHT31;63247;54.300;18.592;2023-07-29T14:00:08;25.81;66.52
67249;SHT31;63247;54.300;18.592;2023-07-29T14:02:34;26.16;65.95
67249;SHT31;63247;54.300;18.592;2023-07-29T14:05:00;26.35;68.43
67249;SHT31;63247;54.300;18.592;2023-07-29T14:07:25;26.39;67.73
67249;SHT31;63247;54.300;18.592;2023-07-29T14:09:50;26.90;67.45
67249;SHT31;63247;54.300;18.592;2023-07-29T14:12:16;26.66;65.87
67249;SHT31;63247;54.300;18.592;2023-07-29T14:14:42;26.39;65.99
67249;SHT31;63247;54.300;18.592;2023-07-29T14:17:07;26.53;65.96
67249;SHT31;63247;54.300;18.592;2023-07-29T14:19:39;26.17;65.96
67249;SHT31;63247;54.300;18.592;2023-07-29T14:22:04;25.81;68.10
67249;SHT31;63247;54.300;18.592;2023-07-29T14:24:30;26.18;67.12
67249;SHT31;63247;54.300;18.592;2023-07-29T14:26:55;26.35;67.06
67249;SHT31;63247;54.300;18.592;2023-07-29T14:29:21;26.59;67.17
67249;SHT31;63247;54.300;18.592;2023-07-29T14:31:46;26.44;67.53
67249;SHT31;63247;54.300;18.592;2023-07-29T14:34:12;26.60;67.25
67249;SHT31;63247;54.300;18.592;2023-07-29T14:36:37;26.58;66.32
67249;SHT31;63247;54.300;18.592;2023-07-29T14:39:03;26.58;67.88
67249;SHT31;63247;54.300;18.592;2023-07-29T14:41:29;26.73;67.10
67249;SHT31;63247;54.300;18.592;2023-07-29T14:43:54;26.13;65.64
67249;SHT31;63247;54.300;18.592;2023-07-29T14:46:19;26.04;66.58
67249;SHT31;63247;54.300;18.592;2023-07-29T14:48:45;25.73;66.98
67249;SHT31;63247;54.300;18.592;2023-07-29T14:51:14;25.60;67.18
67249;SHT31;63247;54.300;18.592;2023-07-29T14:53:39;25.70;67.46
67249;SHT31;63247;54.300;18.592;2023-07-29T14:56:05;25.74;67.84
67249;SHT31;63247;54.300;18.592;2023-07-29T14:58:30;25.53;67.86
67249;SHT31;63247;54.300;18.592;2023-07-29T15:00:56;25.53;67.34
67249;SHT31;63247;54.300;18.592;2023-07-29T15:03:22;25.80;67.31
67249;SHT31;63247;54.300;18.592;2023-07-29T15:05:49;25.67;67.69
67249;SHT31;63247;54.300;18.592;2023-07-29T15:08:14;25.94;66.80
67249;SHT31;63247;54.300;18.592;2023-07-29T15:10:40;25.90;66.84
67249;SHT31;63247;54.300;18.592;2023-07-29T15:13:05;25.98;67.43
67249;SHT31;63247;54.300;18.592;2023-07-29T15:15:31;25.91;67.19
67249;SHT31;63247;54.300;18.592;2023-07-29T15:17:56;26.24;66.99